sensor_id;sensor_type;location;lat;lon;timestamp;P1;durP1;ratioP1;P2;durP2;ratioP2
67941;SDS011;54731;42.600;23.476;2023-01-13T00:02:15;11.67;;;6.50;;
67941;SDS011;54731;42.600;23.476;2023-01-13T00:04:41;11.73;;;6.13;;
67941;SDS011;54731;42.600;23.476;2023-01-13T00:07:10;10.32;;;6.45;;
67941;SDS011;54731;42.600;23.476;2023-01-13T00:09:35;11.57;;;6.17;;
67941;SDS011;54731;42.600;23.476;2023-01-13T00:12:04;9.98;;;6.25;;
67941;SDS011;54731;42.600;23.476;2023-01-13T00:14:41;9.30;;;5.43;;
67941;SDS011;54731;42.600;23.476;2023-01-13T00:17:33;8.97;;;4.80;;
67941;SDS011;54731;42.600;23.476;2023-01-13T00:19:59;7.88;;;5.00;;
67941;SDS011;54731;42.600;23.476;2023-01-13T00:22:24;7.70;;;4.90;;
67941;SDS011;54731;42.600;23.476;2023-01-13T00:24:49;10.17;;;5.37;;
67941;SDS011;54731;42.600;23.476;2023-01-13T00:27:15;8.77;;;5.40;;
67941;SDS011;54731;42.600;23.476;2023-01-13T00:29:40;7.72;;;4.85;;
67941;SDS011;54731;42.600;23.476;2023-01-13T00:32:06;7.77;;;4.43;;
67941;SDS011;54731;42.600;23.476;2023-01-13T00:34:32;7.43;;;4.17;;
67941;SDS011;54731;42.600;23.476;2023-01-13T00:36:57;8.13;;;5.13;;
67941;SDS011;54731;42.600;23.476;2023-01-13T00:39:23;10.10;;;5.83;;
67941;SDS011;54731;42.600;23.476;2023-01-13T00:41:48;9.07;;;4.93;;
67941;SDS011;54731;42.600;23.476;2023-01-13T00:44:13;8.80;;;5.55;;
67941;SDS011;54731;42.600;23.476;2023-01-13T00:46:39;12.43;;;5.40;;
67941;SDS011;54731;42.600;23.476;2023-01-13T00:49:04;12.43;;;6.30;;
67941;SDS011;54731;42.600;23.476;2023-01-13T00:51:30;9.50;;;5.70;;
67941;SDS011;54731;42.600;23.476;2023-01-13T00:53:56;8.57;;;4.90;;
67941;SDS011;54731;42.600;23.476;2023-01-13T00:56:22;9.18;;;5.60;;
67941;SDS011;54731;42.600;23.476;2023-01-13T00:58:49;10.70;;;6.65;;
67941;SDS011;54731;42.600;23.476;2023-01-13T01:01:18;11.35;;;6.78;;
67941;SDS011;54731;42.600;23.476;2023-01-13T01:03:46;13.82;;;7.15;;
67941;SDS011;54731;42.600;23.476;2023-01-13T01:06:13;12.05;;;6.30;;
67941;SDS011;54731;42.600;23.476;2023-01-13T01:08:41;11.27;;;6.30;;
67941;SDS011;54731;42.600;23.476;2023-01-13T01:11:11;8.75;;;5.65;;
67941;SDS011;54731;42.600;23.476;2023-01-13T01:13:38;10.93;;;5.97;;
67941;SDS011;54731;42.600;23.476;2023-01-13T01:16:05;9.10;;;5.70;;
67941;SDS011;54731;42.600;23.476;2023-01-13T01:18:35;12.10;;;6.65;;
67941;SDS011;54731;42.600;23.476;2023-01-13T01:21:05;10.32;;;6.20;;
67941;SDS011;54731;42.600;23.476;2023-01-13T01:23:32;10.23;;;5.80;;
67941;SDS011;54731;42.600;23.476;2023-01-13T01:25:59;12.60;;;7.20;;
67941;SDS011;54731;42.600;23.476;2023-01-13T01:28:25;10.82;;;6.57;;
67941;SDS011;54731;42.600;23.476;2023-01-13T01:30:51;10.10;;;5.97;;
67941;SDS011;54731;42.600;23.476;2023-01-13T01:33:16;11.33;;;5.93;;
67941;SDS011;54731;42.600;23.476;2023-01-13T01:35:42;9.07;;;5.83;;
67941;SDS011;54731;42.600;23.476;2023-01-13T01:38:07;8.90;;;5.65;;
67941;SDS011;54731;42.600;23.476;2023-01-13T01:40:33;9.60;;;5.35;;
67941;SDS011;54731;42.600;23.476;2023-01-13T01:42:58;9.03;;;6.00;;
67941;SDS011;54731;42.600;23.476;2023-01-13T01:45:25;8.52;;;5.30;;
67941;SDS011;54731;42.600;23.476;2023-01-13T01:47:53;11.00;;;5.77;;
67941;SDS011;54731;42.600;23.476;2023-01-13T01:50:22;7.43;;;4.57;;
67941;SDS011;54731;42.600;23.476;2023-01-13T01:52:49;9.63;;;5.35;;
67941;SDS011;54731;42.600;23.476;2023-01-13T01:55:21;10.55;;;5.65;;
67941;SDS011;54731;42.600;23.476;2023-01-13T01:58:07;12.32;;;5.88;;
67941;SDS011;54731;42.600;23.476;2023-01-13T02:00:40;9.63;;;5.33;;
67941;SDS011;54731;42.600;23.476;2023-01-13T02:03:06;8.70;;;5.50;;
67941;SDS011;54731;42.600;23.476;2023-01-13T02:05:33;17.07;;;7.10;;
67941;SDS011;54731;42.600;23.476;2023-01-13T02:07:59;15.80;;;7.75;;
67941;SDS011;54731;42.600;23.476;2023-01-13T02:10:26;11.70;;;5.72;;
67941;SDS011;54731;42.600;23.476;2023-01-13T02:12:54;10.13;;;5.43;;
67941;SDS011;54731;42.600;23.476;2023-01-13T02:15:34;7.40;;;4.93;;
67941;SDS011;54731;42.600;23.476;2023-01-13T02:20:51;8.98;;;5.93;;
67941;SDS011;54731;42.600;23.476;2023-01-13T02:31:37;9.75;;;6.03;;
67941;SDS011;54731;42.600;23.476;2023-01-13T02:39:43;9.00;;;4.85;;
67941;SDS011;54731;42.600;23.476;2023-01-13T02:42:18;7.28;;;4.82;;
67941;SDS011;54731;42.600;23.476;2023-01-13T02:44:52;8.30;;;5.13;;
67941;SDS011;54731;42.600;23.476;2023-01-13T02:47:26;6.93;;;4.63;;
67941;SDS011;54731;42.600;23.476;2023-01-13T02:50:01;7.43;;;4.85;;
67941;SDS011;54731;42.600;23.476;2023-01-13T02:52:32;6.63;;;3.95;;
67941;SDS011;54731;42.600;23.476;2023-01-13T02:55:05;4.97;;;3.33;;
67941;SDS011;54731;42.600;23.476;2023-01-13T02:57:35;5.15;;;3.80;;
67941;SDS011;54731;42.600;23.476;2023-01-13T03:00:03;5.75;;;3.13;;
67941;SDS011;54731;42.600;23.476;2023-01-13T03:02:31;5.32;;;3.45;;
67941;SDS011;54731;42.600;23.476;2023-01-13T03:04:57;6.43;;;3.40;;
67941;SDS011;54731;42.600;23.476;2023-01-13T03:07:41;5.28;;;3.25;;
67941;SDS011;54731;42.600;23.476;2023-01-13T03:15:53;6.65;;;3.55;;
67941;SDS011;54731;42.600;23.476;2023-01-13T03:21:06;7.05;;;3.88;;
67941;SDS011;54731;42.600;23.476;2023-01-13T03:23:50;5.28;;;2.97;;
67941;SDS011;54731;42.600;23.476;2023-01-13T03:26:40;12.97;;;4.63;;
67941;SDS011;54731;42.600;23.476;2023-01-13T03:29:25;5.43;;;3.38;;
67941;SDS011;54731;42.600;23.476;2023-01-13T03:31:58;4.15;;;2.28;;
67941;SDS011;54731;42.600;23.476;2023-01-13T03:34:55;19.45;;;7.78;;
67941;SDS011;54731;42.600;23.476;2023-01-13T03:37:28;4.38;;;2.17;;
67941;SDS011;54731;42.600;23.476;2023-01-13T03:40:01;13.03;;;4.93;;
67941;SDS011;54731;42.600;23.476;2023-01-13T03:42:32;6.05;;;3.20;;
67941;SDS011;54731;42.600;23.476;2023-01-13T03:45:09;9.40;;;3.60;;
67941;SDS011;54731;42.600;23.476;2023-01-13T03:47:40;4.78;;;2.50;;
67941;SDS011;54731;42.600;23.476;2023-01-13T03:50:14;8.98;;;4.30;;
67941;SDS011;54731;42.600;23.476;2023-01-13T03:52:46;5.18;;;3.10;;
67941;SDS011;54731;42.600;23.476;2023-01-13T03:55:16;4.35;;;1.92;;
67941;SDS011;54731;42.600;23.476;2023-01-13T04:00:33;6.65;;;2.63;;
67941;SDS011;54731;42.600;23.476;2023-01-13T04:03:12;8.98;;;4.22;;
67941;SDS011;54731;42.600;23.476;2023-01-13T04:06:14;2.83;;;1.63;;
67941;SDS011;54731;42.600;23.476;2023-01-13T04:08:50;3.80;;;2.08;;
67941;SDS011;54731;42.600;23.476;2023-01-13T04:11:40;5.78;;;2.92;;
67941;SDS011;54731;42.600;23.476;2023-01-13T04:14:08;5.57;;;3.40;;
67941;SDS011;54731;42.600;23.476;2023-01-13T04:16:36;4.03;;;2.83;;
67941;SDS011;54731;42.600;23.476;2023-01-13T04:19:02;3.47;;;2.70;;
67941;SDS011;54731;42.600;23.476;2023-01-13T04:21:37;2.95;;;2.20;;
67941;SDS011;54731;42.600;23.476;2023-01-13T04:24:28;4.18;;;3.03;;
67941;SDS011;54731;42.600;23.476;2023-01-13T04:26:54;2.93;;;2.13;;
67941;SDS011;54731;42.600;23.476;2023-01-13T04:29:19;4.03;;;2.50;;
67941;SDS011;54731;42.600;23.476;2023-01-13T04:31:45;4.03;;;2.40;;
67941;SDS011;54731;42.600;23.476;2023-01-13T04:34:10;3.77;;;2.40;;
67941;SDS011;54731;42.600;23.476;2023-01-13T04:36:36;4.03;;;2.63;;
67941;SDS011;54731;42.600;23.476;2023-01-13T04:39:18;3.75;;;2.17;;
67941;SDS011;54731;42.600;23.476;2023-01-13T04:41:43;3.33;;;2.13;;
67941;SDS011;54731;42.600;23.476;2023-01-13T04:44:12;3.42;;;2.20;;
67941;SDS011;54731;42.600;23.476;2023-01-13T04:46:37;3.40;;;1.98;;
67941;SDS011;54731;42.600;23.476;2023-01-13T04:49:03;4.03;;;2.90;;
67941;SDS011;54731;42.600;23.476;2023-01-13T04:51:28;4.83;;;2.77;;
67941;SDS011;54731;42.600;23.476;2023-01-13T04:53:54;4.95;;;3.45;;
67941;SDS011;54731;42.600;23.476;2023-01-13T04:56:19;4.18;;;2.72;;
67941;SDS011;54731;42.600;23.476;2023-01-13T04:58:45;4.13;;;2.77;;
67941;SDS011;54731;42.600;23.476;2023-01-13T05:01:10;3.73;;;2.27;;
67941;SDS011;54731;42.600;23.476;2023-01-13T05:03:35;10.03;;;4.83;;
67941;SDS011;54731;42.600;23.476;2023-01-13T05:06:01;5.32;;;3.22;;
67941;SDS011;54731;42.600;23.476;2023-01-13T05:08:26;7.60;;;5.07;;
67941;SDS011;54731;42.600;23.476;2023-01-13T05:10:54;5.28;;;2.80;;
67941;SDS011;54731;42.600;23.476;2023-01-13T05:13:24;4.97;;;3.13;;
67941;SDS011;54731;42.600;23.476;2023-01-13T05:15:49;4.53;;;2.70;;
67941;SDS011;54731;42.600;23.476;2023-01-13T05:18:15;5.60;;;2.80;;
67941;SDS011;54731;42.600;23.476;2023-01-13T05:20:41;4.85;;;2.90;;
67941;SDS011;54731;42.600;23.476;2023-01-13T05:23:07;4.80;;;3.00;;
67941;SDS011;54731;42.600;23.476;2023-01-13T05:25:33;5.23;;;3.10;;
67941;SDS011;54731;42.600;23.476;2023-01-13T05:28:02;3.95;;;2.53;;
67941;SDS011;54731;42.600;23.476;2023-01-13T05:30:32;4.03;;;2.23;;
67941;SDS011;54731;42.600;23.476;2023-01-13T05:33:01;4.68;;;2.33;;
67941;SDS011;54731;42.600;23.476;2023-01-13T05:35:27;3.10;;;2.20;;
67941;SDS011;54731;42.600;23.476;2023-01-13T05:37:53;5.80;;;2.63;;
67941;SDS011;54731;42.600;23.476;2023-01-13T05:40:19;74.07;;;17.00;;
67941;SDS011;54731;42.600;23.476;2023-01-13T05:42:45;18.53;;;7.60;;
67941;SDS011;54731;42.600;23.476;2023-01-13T05:45:10;41.15;;;9.80;;
67941;SDS011;54731;42.600;23.476;2023-01-13T05:47:36;8.30;;;3.33;;
67941;SDS011;54731;42.600;23.476;2023-01-13T05:50:02;4.00;;;2.27;;
67941;SDS011;54731;42.600;23.476;2023-01-13T05:52:28;6.72;;;2.88;;
67941;SDS011;54731;42.600;23.476;2023-01-13T05:54:53;4.55;;;2.25;;
67941;SDS011;54731;42.600;23.476;2023-01-13T05:57:19;10.17;;;3.53;;
67941;SDS011;54731;42.600;23.476;2023-01-13T05:59:44;6.13;;;2.57;;
67941;SDS011;54731;42.600;23.476;2023-01-13T06:02:10;2.90;;;1.80;;
67941;SDS011;54731;42.600;23.476;2023-01-13T06:04:35;3.30;;;1.60;;
67941;SDS011;54731;42.600;23.476;2023-01-13T06:07:01;5.33;;;3.23;;
67941;SDS011;54731;42.600;23.476;2023-01-13T06:09:26;8.13;;;4.82;;
67941;SDS011;54731;42.600;23.476;2023-01-13T06:11:52;12.32;;;7.28;;
67941;SDS011;54731;42.600;23.476;2023-01-13T06:14:17;14.27;;;6.83;;
67941;SDS011;54731;42.600;23.476;2023-01-13T06:16:42;8.33;;;5.13;;
67941;SDS011;54731;42.600;23.476;2023-01-13T06:19:08;10.07;;;5.30;;
67941;SDS011;54731;42.600;23.476;2023-01-13T06:21:34;13.85;;;6.10;;
67941;SDS011;54731;42.600;23.476;2023-01-13T06:23:59;13.80;;;8.00;;
67941;SDS011;54731;42.600;23.476;2023-01-13T06:26:25;17.73;;;10.43;;
67941;SDS011;54731;42.600;23.476;2023-01-13T06:28:54;26.20;;;13.10;;
67941;SDS011;54731;42.600;23.476;2023-01-13T06:31:19;18.23;;;10.27;;
67941;SDS011;54731;42.600;23.476;2023-01-13T06:33:49;20.27;;;12.23;;
67941;SDS011;54731;42.600;23.476;2023-01-13T06:36:19;14.47;;;8.53;;
67941;SDS011;54731;42.600;23.476;2023-01-13T06:38:59;16.00;;;9.10;;
67941;SDS011;54731;42.600;23.476;2023-01-13T06:41:26;10.90;;;7.18;;
67941;SDS011;54731;42.600;23.476;2023-01-13T06:43:54;15.35;;;8.10;;
67941;SDS011;54731;42.600;23.476;2023-01-13T06:46:20;14.80;;;8.50;;
67941;SDS011;54731;42.600;23.476;2023-01-13T06:48:45;46.20;;;19.33;;
67941;SDS011;54731;42.600;23.476;2023-01-13T06:51:11;63.70;;;24.65;;
67941;SDS011;54731;42.600;23.476;2023-01-13T06:53:36;28.47;;;13.10;;
67941;SDS011;54731;42.600;23.476;2023-01-13T06:56:02;18.33;;;9.83;;
67941;SDS011;54731;42.600;23.476;2023-01-13T06:58:27;17.43;;;9.67;;
67941;SDS011;54731;42.600;23.476;2023-01-13T07:00:53;20.65;;;11.35;;
67941;SDS011;54731;42.600;23.476;2023-01-13T07:03:18;19.13;;;10.23;;
67941;SDS011;54731;42.600;23.476;2023-01-13T07:05:50;17.33;;;9.57;;
67941;SDS011;54731;42.600;23.476;2023-01-13T07:08:16;16.52;;;10.05;;
67941;SDS011;54731;42.600;23.476;2023-01-13T07:10:42;15.10;;;8.00;;
67941;SDS011;54731;42.600;23.476;2023-01-13T07:13:07;14.83;;;8.23;;
67941;SDS011;54731;42.600;23.476;2023-01-13T07:15:32;11.90;;;8.17;;
67941;SDS011;54731;42.600;23.476;2023-01-13T07:17:59;13.70;;;7.35;;
67941;SDS011;54731;42.600;23.476;2023-01-13T07:20:24;15.37;;;9.00;;
67941;SDS011;54731;42.600;23.476;2023-01-13T07:22:53;13.53;;;7.53;;
67941;SDS011;54731;42.600;23.476;2023-01-13T07:25:19;12.68;;;7.22;;
67941;SDS011;54731;42.600;23.476;2023-01-13T07:27:44;11.70;;;6.97;;
67941;SDS011;54731;42.600;23.476;2023-01-13T07:30:11;11.95;;;7.82;;
67941;SDS011;54731;42.600;23.476;2023-01-13T07:32:37;14.40;;;7.90;;
67941;SDS011;54731;42.600;23.476;2023-01-13T07:35:02;13.57;;;8.15;;
67941;SDS011;54731;42.600;23.476;2023-01-13T07:37:27;10.80;;;5.63;;
67941;SDS011;54731;42.600;23.476;2023-01-13T07:39:53;11.93;;;6.37;;
67941;SDS011;54731;42.600;23.476;2023-01-13T07:42:18;15.30;;;9.23;;
67941;SDS011;54731;42.600;23.476;2023-01-13T07:44:43;20.77;;;12.00;;
67941;SDS011;54731;42.600;23.476;2023-01-13T07:47:08;20.83;;;12.50;;
67941;SDS011;54731;42.600;23.476;2023-01-13T07:49:34;22.97;;;12.53;;
67941;SDS011;54731;42.600;23.476;2023-01-13T07:51:59;17.80;;;10.70;;
67941;SDS011;54731;42.600;23.476;2023-01-13T07:54:24;20.20;;;8.93;;
67941;SDS011;54731;42.600;23.476;2023-01-13T07:56:50;18.37;;;10.90;;
67941;SDS011;54731;42.600;23.476;2023-01-13T07:59:15;15.80;;;9.07;;
67941;SDS011;54731;42.600;23.476;2023-01-13T08:01:40;14.33;;;8.47;;
67941;SDS011;54731;42.600;23.476;2023-01-13T08:04:05;16.73;;;9.93;;
67941;SDS011;54731;42.600;23.476;2023-01-13T08:06:31;26.87;;;12.60;;
67941;SDS011;54731;42.600;23.476;2023-01-13T08:08:57;18.67;;;10.07;;
67941;SDS011;54731;42.600;23.476;2023-01-13T08:11:22;14.38;;;8.90;;
67941;SDS011;54731;42.600;23.476;2023-01-13T08:13:47;19.47;;;10.20;;
67941;SDS011;54731;42.600;23.476;2023-01-13T08:16:13;13.17;;;7.23;;
67941;SDS011;54731;42.600;23.476;2023-01-13T08:18:39;21.83;;;9.82;;
67941;SDS011;54731;42.600;23.476;2023-01-13T08:21:06;31.27;;;13.10;;
67941;SDS011;54731;42.600;23.476;2023-01-13T08:23:33;31.15;;;12.57;;
67941;SDS011;54731;42.600;23.476;2023-01-13T08:26:02;23.87;;;11.77;;
67941;SDS011;54731;42.600;23.476;2023-01-13T08:28:29;23.27;;;11.50;;
67941;SDS011;54731;42.600;23.476;2023-01-13T08:30:57;20.08;;;10.48;;
67941;SDS011;54731;42.600;23.476;2023-01-13T08:33:24;22.58;;;9.63;;
67941;SDS011;54731;42.600;23.476;2023-01-13T08:35:49;21.07;;;10.60;;
67941;SDS011;54731;42.600;23.476;2023-01-13T08:38:15;22.07;;;11.20;;
67941;SDS011;54731;42.600;23.476;2023-01-13T08:40:40;18.27;;;10.13;;
67941;SDS011;54731;42.600;23.476;2023-01-13T08:43:05;18.83;;;9.53;;
67941;SDS011;54731;42.600;23.476;2023-01-13T08:45:30;14.50;;;9.20;;
67941;SDS011;54731;42.600;23.476;2023-01-13T08:47:56;12.90;;;7.37;;
67941;SDS011;54731;42.600;23.476;2023-01-13T08:50:22;18.38;;;9.52;;
67941;SDS011;54731;42.600;23.476;2023-01-13T08:52:48;10.00;;;6.20;;
67941;SDS011;54731;42.600;23.476;2023-01-13T08:55:13;12.83;;;6.67;;
67941;SDS011;54731;42.600;23.476;2023-01-13T08:57:38;15.53;;;6.27;;
67941;SDS011;54731;42.600;23.476;2023-01-13T09:00:05;10.03;;;5.70;;
67941;SDS011;54731;42.600;23.476;2023-01-13T09:02:31;12.50;;;6.18;;
67941;SDS011;54731;42.600;23.476;2023-01-13T09:04:56;16.37;;;7.47;;
67941;SDS011;54731;42.600;23.476;2023-01-13T09:07:21;17.77;;;7.22;;
67941;SDS011;54731;42.600;23.476;2023-01-13T09:09:47;15.73;;;5.90;;
67941;SDS011;54731;42.600;23.476;2023-01-13T09:12:13;10.87;;;4.50;;
67941;SDS011;54731;42.600;23.476;2023-01-13T09:14:39;8.50;;;4.53;;
67941;SDS011;54731;42.600;23.476;2023-01-13T09:17:04;9.33;;;4.43;;
67941;SDS011;54731;42.600;23.476;2023-01-13T09:19:30;8.87;;;4.10;;
67941;SDS011;54731;42.600;23.476;2023-01-13T09:21:55;6.30;;;3.30;;
67941;SDS011;54731;42.600;23.476;2023-01-13T09:24:21;7.93;;;4.40;;
67941;SDS011;54731;42.600;23.476;2023-01-13T09:26:47;12.23;;;8.68;;
67941;SDS011;54731;42.600;23.476;2023-01-13T09:29:13;8.73;;;5.68;;
67941;SDS011;54731;42.600;23.476;2023-01-13T09:31:39;5.03;;;3.60;;
67941;SDS011;54731;42.600;23.476;2023-01-13T09:34:06;6.30;;;3.77;;
67941;SDS011;54731;42.600;23.476;2023-01-13T09:36:34;6.53;;;3.88;;
67941;SDS011;54731;42.600;23.476;2023-01-13T09:38:59;3.83;;;2.00;;
67941;SDS011;54731;42.600;23.476;2023-01-13T09:41:25;3.37;;;1.90;;
67941;SDS011;54731;42.600;23.476;2023-01-13T09:43:54;3.70;;;1.40;;
67941;SDS011;54731;42.600;23.476;2023-01-13T09:46:21;6.28;;;3.85;;
67941;SDS011;54731;42.600;23.476;2023-01-13T09:48:51;20.15;;;7.45;;
67941;SDS011;54731;42.600;23.476;2023-01-13T09:51:18;23.43;;;7.77;;
67941;SDS011;54731;42.600;23.476;2023-01-13T09:56:39;8.68;;;5.20;;
67941;SDS011;54731;42.600;23.476;2023-01-13T09:59:07;8.87;;;5.53;;
67941;SDS011;54731;42.600;23.476;2023-01-13T10:01:37;9.90;;;5.50;;
67941;SDS011;54731;42.600;23.476;2023-01-13T10:04:10;9.27;;;6.60;;
67941;SDS011;54731;42.600;23.476;2023-01-13T10:06:38;13.07;;;7.20;;
67941;SDS011;54731;42.600;23.476;2023-01-13T10:09:08;7.50;;;4.97;;
67941;SDS011;54731;42.600;23.476;2023-01-13T10:11:38;9.80;;;4.68;;
67941;SDS011;54731;42.600;23.476;2023-01-13T10:29:53;18.20;;;8.93;;
67941;SDS011;54731;42.600;23.476;2023-01-13T10:32:18;13.93;;;7.85;;
67941;SDS011;54731;42.600;23.476;2023-01-13T10:34:48;14.63;;;7.37;;
67941;SDS011;54731;42.600;23.476;2023-01-13T10:37:22;20.63;;;9.00;;
67941;SDS011;54731;42.600;23.476;2023-01-13T10:39:50;19.37;;;7.67;;
67941;SDS011;54731;42.600;23.476;2023-01-13T10:42:19;10.40;;;6.63;;
67941;SDS011;54731;42.600;23.476;2023-01-13T10:45:04;13.93;;;7.07;;
67941;SDS011;54731;42.600;23.476;2023-01-13T10:47:31;13.05;;;6.38;;
67941;SDS011;54731;42.600;23.476;2023-01-13T10:52:33;16.63;;;8.93;;
67941;SDS011;54731;42.600;23.476;2023-01-13T10:55:00;12.95;;;7.38;;
67941;SDS011;54731;42.600;23.476;2023-01-13T10:57:26;15.30;;;7.65;;
67941;SDS011;54731;42.600;23.476;2023-01-13T10:59:52;14.37;;;7.07;;
67941;SDS011;54731;42.600;23.476;2023-01-13T11:07:33;18.35;;;10.77;;
67941;SDS011;54731;42.600;23.476;2023-01-13T11:12:34;21.10;;;10.57;;
67941;SDS011;54731;42.600;23.476;2023-01-13T11:18:20;13.93;;;8.18;;
67941;SDS011;54731;42.600;23.476;2023-01-13T11:20:52;11.82;;;6.25;;
67941;SDS011;54731;42.600;23.476;2023-01-13T11:24:03;11.07;;;6.72;;
67941;SDS011;54731;42.600;23.476;2023-01-13T11:26:17;17.80;;;6.33;;
67941;SDS011;54731;42.600;23.476;2023-01-13T11:29:02;11.95;;;6.97;;
67941;SDS011;54731;42.600;23.476;2023-01-13T11:31:36;12.15;;;6.00;;
67941;SDS011;54731;42.600;23.476;2023-01-13T11:34:15;9.20;;;5.00;;
67941;SDS011;54731;42.600;23.476;2023-01-13T11:36:42;11.20;;;6.20;;
67941;SDS011;54731;42.600;23.476;2023-01-13T11:39:20;10.57;;;5.80;;
67941;SDS011;54731;42.600;23.476;2023-01-13T11:42:03;10.63;;;6.28;;
67941;SDS011;54731;42.600;23.476;2023-01-13T11:47:25;15.57;;;8.02;;
67941;SDS011;54731;42.600;23.476;2023-01-13T11:49:51;13.40;;;7.47;;
67941;SDS011;54731;42.600;23.476;2023-01-13T12:03:39;15.77;;;8.00;;
67941;SDS011;54731;42.600;23.476;2023-01-13T12:06:26;13.73;;;6.45;;
67941;SDS011;54731;42.600;23.476;2023-01-13T12:14:44;20.60;;;11.30;;
67941;SDS011;54731;42.600;23.476;2023-01-13T12:17:07;22.83;;;12.38;;
67941;SDS011;54731;42.600;23.476;2023-01-13T12:19:44;21.85;;;11.73;;
67941;SDS011;54731;42.600;23.476;2023-01-13T12:22:22;26.03;;;13.83;;
67941;SDS011;54731;42.600;23.476;2023-01-13T12:25:04;53.10;;;23.70;;
67941;SDS011;54731;42.600;23.476;2023-01-13T12:32:47;10.65;;;6.30;;
67941;SDS011;54731;42.600;23.476;2023-01-13T12:41:00;17.08;;;10.40;;
67941;SDS011;54731;42.600;23.476;2023-01-13T12:43:39;10.98;;;6.78;;
67941;SDS011;54731;42.600;23.476;2023-01-13T12:51:22;13.00;;;7.38;;
67941;SDS011;54731;42.600;23.476;2023-01-13T12:56:54;17.65;;;9.15;;
67941;SDS011;54731;42.600;23.476;2023-01-13T13:02:20;19.83;;;9.67;;
67941;SDS011;54731;42.600;23.476;2023-01-13T13:04:46;15.30;;;8.52;;
67941;SDS011;54731;42.600;23.476;2023-01-13T13:07:14;20.63;;;11.98;;
67941;SDS011;54731;42.600;23.476;2023-01-13T13:09:48;11.40;;;8.35;;
67941;SDS011;54731;42.600;23.476;2023-01-13T13:15:18;9.07;;;5.93;;
67941;SDS011;54731;42.600;23.476;2023-01-13T13:36:47;20.90;;;11.02;;
67941;SDS011;54731;42.600;23.476;2023-01-13T13:39:34;21.67;;;11.65;;
67941;SDS011;54731;42.600;23.476;2023-01-13T13:42:03;19.93;;;10.47;;
67941;SDS011;54731;42.600;23.476;2023-01-13T13:44:37;79.40;;;33.38;;
67941;SDS011;54731;42.600;23.476;2023-01-13T13:47:05;79.23;;;32.43;;
67941;SDS011;54731;42.600;23.476;2023-01-13T13:49:35;41.38;;;17.75;;
67941;SDS011;54731;42.600;23.476;2023-01-13T13:54:33;47.47;;;17.70;;
67941;SDS011;54731;42.600;23.476;2023-01-13T13:56:59;139.15;;;45.70;;
67941;SDS011;54731;42.600;23.476;2023-01-13T13:59:25;25.58;;;10.57;;
67941;SDS011;54731;42.600;23.476;2023-01-13T14:01:53;103.40;;;33.13;;
67941;SDS011;54731;42.600;23.476;2023-01-13T14:04:21;124.00;;;40.17;;
67941;SDS011;54731;42.600;23.476;2023-01-13T14:06:53;82.00;;;28.00;;
67941;SDS011;54731;42.600;23.476;2023-01-13T14:09:27;151.57;;;51.05;;
67941;SDS011;54731;42.600;23.476;2023-01-13T14:12:03;334.65;;;112.07;;
67941;SDS011;54731;42.600;23.476;2023-01-13T14:14:29;179.20;;;68.15;;
67941;SDS011;54731;42.600;23.476;2023-01-13T14:16:55;65.70;;;29.97;;
67941;SDS011;54731;42.600;23.476;2023-01-13T14:21:48;76.05;;;29.23;;
67941;SDS011;54731;42.600;23.476;2023-01-13T14:24:14;82.93;;;34.10;;
67941;SDS011;54731;42.600;23.476;2023-01-13T14:26:40;95.40;;;37.05;;
67941;SDS011;54731;42.600;23.476;2023-01-13T14:29:06;109.37;;;39.87;;
67941;SDS011;54731;42.600;23.476;2023-01-13T14:31:37;41.92;;;18.85;;
67941;SDS011;54731;42.600;23.476;2023-01-13T14:34:03;80.13;;;29.98;;
67941;SDS011;54731;42.600;23.476;2023-01-13T14:41:49;42.80;;;19.40;;
67941;SDS011;54731;42.600;23.476;2023-01-13T14:46:45;146.05;;;45.92;;
67941;SDS011;54731;42.600;23.476;2023-01-13T14:51:48;68.20;;;23.65;;
67941;SDS011;54731;42.600;23.476;2023-01-13T14:57:24;95.88;;;28.92;;
67941;SDS011;54731;42.600;23.476;2023-01-13T15:04:55;46.97;;;17.00;;
67941;SDS011;54731;42.600;23.476;2023-01-13T15:07:28;7.30;;;5.10;;
67941;SDS011;54731;42.600;23.476;2023-01-13T15:09:56;79.18;;;25.35;;
67941;SDS011;54731;42.600;23.476;2023-01-13T15:14:52;56.60;;;18.27;;
67941;SDS011;54731;42.600;23.476;2023-01-13T15:17:17;124.33;;;35.30;;
67941;SDS011;54731;42.600;23.476;2023-01-13T15:19:43;71.80;;;25.67;;
67941;SDS011;54731;42.600;23.476;2023-01-13T15:32:41;83.80;;;49.00;;
67941;SDS011;54731;42.600;23.476;2023-01-13T15:35:07;70.05;;;31.83;;
67941;SDS011;54731;42.600;23.476;2023-01-13T15:37:36;52.53;;;20.60;;
67941;SDS011;54731;42.600;23.476;2023-01-13T15:40:01;50.95;;;19.92;;
67941;SDS011;54731;42.600;23.476;2023-01-13T15:42:27;66.93;;;23.73;;
67941;SDS011;54731;42.600;23.476;2023-01-13T15:44:52;77.23;;;26.50;;
67941;SDS011;54731;42.600;23.476;2023-01-13T15:47:17;106.30;;;34.67;;
67941;SDS011;54731;42.600;23.476;2023-01-13T15:49:45;63.05;;;22.13;;
67941;SDS011;54731;42.600;23.476;2023-01-13T15:52:15;68.07;;;24.30;;
67941;SDS011;54731;42.600;23.476;2023-01-13T15:54:43;88.05;;;32.33;;
67941;SDS011;54731;42.600;23.476;2023-01-13T15:59:47;110.13;;;36.67;;
67941;SDS011;54731;42.600;23.476;2023-01-13T16:02:15;100.57;;;34.43;;
67941;SDS011;54731;42.600;23.476;2023-01-13T16:04:40;245.23;;;81.20;;
67941;SDS011;54731;42.600;23.476;2023-01-13T16:07:10;118.13;;;57.10;;
67941;SDS011;54731;42.600;23.476;2023-01-13T16:09:41;42.33;;;33.10;;
67941;SDS011;54731;42.600;23.476;2023-01-13T16:12:07;23.77;;;20.83;;
67941;SDS011;54731;42.600;23.476;2023-01-13T16:14:33;22.30;;;19.63;;
67941;SDS011;54731;42.600;23.476;2023-01-13T16:16:59;13.73;;;12.33;;
67941;SDS011;54731;42.600;23.476;2023-01-13T16:19:26;11.35;;;9.57;;
67941;SDS011;54731;42.600;23.476;2023-01-13T16:21:51;17.73;;;10.40;;
67941;SDS011;54731;42.600;23.476;2023-01-13T16:24:19;10.38;;;8.75;;
67941;SDS011;54731;42.600;23.476;2023-01-13T16:26:45;9.23;;;5.93;;
67941;SDS011;54731;42.600;23.476;2023-01-13T16:29:10;18.83;;;8.05;;
67941;SDS011;54731;42.600;23.476;2023-01-13T16:31:36;33.90;;;14.50;;
67941;SDS011;54731;42.600;23.476;2023-01-13T16:34:02;24.13;;;12.37;;
67941;SDS011;54731;42.600;23.476;2023-01-13T16:36:28;46.97;;;19.73;;
67941;SDS011;54731;42.600;23.476;2023-01-13T16:38:58;31.60;;;15.73;;
67941;SDS011;54731;42.600;23.476;2023-01-13T16:41:24;26.58;;;14.60;;
67941;SDS011;54731;42.600;23.476;2023-01-13T16:43:50;22.00;;;8.53;;
67941;SDS011;54731;42.600;23.476;2023-01-13T16:46:20;17.38;;;8.52;;
67941;SDS011;54731;42.600;23.476;2023-01-13T16:48:47;15.65;;;9.13;;
67941;SDS011;54731;42.600;23.476;2023-01-13T16:51:13;23.35;;;11.68;;
67941;SDS011;54731;42.600;23.476;2023-01-13T16:53:38;22.70;;;11.00;;
67941;SDS011;54731;42.600;23.476;2023-01-13T16:56:12;31.50;;;13.05;;
67941;SDS011;54731;42.600;23.476;2023-01-13T16:58:45;32.23;;;12.37;;
67941;SDS011;54731;42.600;23.476;2023-01-13T17:01:15;36.50;;;16.55;;
67941;SDS011;54731;42.600;23.476;2023-01-13T17:03:47;50.03;;;23.20;;
67941;SDS011;54731;42.600;23.476;2023-01-13T17:06:12;53.53;;;24.42;;
67941;SDS011;54731;42.600;23.476;2023-01-13T17:08:38;61.38;;;26.90;;
67941;SDS011;54731;42.600;23.476;2023-01-13T17:11:03;84.87;;;33.53;;
67941;SDS011;54731;42.600;23.476;2023-01-13T17:13:29;136.68;;;44.85;;